Time;durP1;ratioP1;P1;durP2;ratioP2;P2;SDS_P1;SDS_P2;PMS_P1;PMS_P2;Temp;Humidity;BMP_temperature;BMP_pressure;BME280_temperature;BME280_humidity;BME280_pressure;Samples;Min_cycle;Max_cycle;Signal;HPM_P1;HPM_P2
2021/09/11 00:02:05;;;;;;;9.13;7.55;;;21.70;80.50;;;;;;5097452;28;20180;-72
2021/09/11 00:04:30;;;;;;;9.32;7.35;;;21.70;80.40;;;;;;5097517;28;20086;-71
2021/09/11 00:06:57;;;;;;;9.60;7.53;;;21.70;80.40;;;;;;5079945;28;20048;-71
2021/09/11 00:09:23;;;;;;;8.05;7.18;;;21.70;80.40;;;;;;5096930;28;20458;-71
2021/09/11 00:11:48;;;;;;;11.00;7.47;;;21.70;80.40;;;;;;5097011;28;20043;-72
2021/09/11 00:14:14;;;;;;;8.15;6.88;;;21.70;80.50;;;;;;5097561;28;20526;-71
2021/09/11 00:16:41;;;;;;;8.63;7.80;;;21.70;81.10;;;;;;5097600;28;20344;-71
2021/09/11 00:19:06;;;;;;;10.18;7.53;;;21.70;80.50;;;;;;5097638;28;20047;-71
2021/09/11 00:21:32;;;;;;;7.57;6.72;;;21.60;80.50;;;;;;5062849;28;20048;-72
2021/09/11 00:23:58;;;;;;;7.65;6.88;;;21.60;80.50;;;;;;5097153;28;20047;-71
2021/09/11 00:26:24;;;;;;;8.38;7.53;;;21.60;80.60;;;;;;5097208;28;20172;-71
2021/09/11 00:28:51;;;;;;;8.40;7.60;;;21.60;80.60;;;;;;5079567;28;20100;-71
2021/09/11 00:31:17;;;;;;;7.90;7.10;;;21.60;80.60;;;;;;5097663;28;20115;-72
2021/09/11 00:33:43;;;;;;;9.50;7.63;;;21.60;80.60;;;;;;5096763;28;20047;-71
2021/09/11 00:36:08;;;;;;;9.50;7.55;;;21.60;80.60;;;;;;5097233;28;20044;-71
2021/09/11 00:38:34;;;;;;;9.68;7.40;;;21.60;80.60;;;;;;5097453;28;20044;-71
2021/09/11 00:41:00;;;;;;;8.35;7.47;;;21.60;80.50;;;;;;5097279;28;20054;-71
2021/09/11 00:43:27;;;;;;;7.78;7.07;;;21.60;80.50;;;;;;5096446;28;20052;-71
2021/09/11 00:45:53;;;;;;;9.18;7.32;;;21.60;80.40;;;;;;5097672;28;20044;-71
2021/09/11 00:48:19;;;;;;;8.07;7.28;;;21.60;80.40;;;;;;5097173;28;20054;-71
2021/09/11 00:50:47;;;;;;;8.27;7.47;;;21.60;80.40;;;;;;5097096;28;20083;-71
2021/09/11 00:53:14;;;;;;;9.43;8.50;;;21.60;80.40;;;;;;5096557;28;20043;-71
2021/09/11 00:55:43;;;;;;;9.98;8.05;;;21.60;80.30;;;;;;5079013;28;20105;-71
2021/09/11 00:58:09;;;;;;;8.30;7.25;;;21.60;80.30;;;;;;5096671;28;20036;-72
2021/09/11 01:00:34;;;;;;;8.38;7.45;;;21.60;80.40;;;;;;5097289;28;20252;-71
2021/09/11 01:03:00;;;;;;;10.35;8.00;;;21.50;80.20;;;;;;5096056;28;20044;-72
2021/09/11 01:05:25;;;;;;;8.35;7.50;;;21.50;80.20;;;;;;5096228;28;20035;-72
2021/09/11 01:07:51;;;;;;;8.18;7.38;;;21.50;80.20;;;;;;5096637;28;20055;-71
2021/09/11 01:10:17;;;;;;;7.75;7.05;;;21.50;80.10;;;;;;5096390;28;20377;-70
2021/09/11 01:12:43;;;;;;;9.52;6.97;;;21.50;80.10;;;;;;5095514;28;20051;-71
2021/09/11 01:15:11;;;;;;;8.13;7.25;;;21.50;80.10;;;;;;5096542;28;20044;-71
2021/09/11 01:17:41;;;;;;;8.80;7.13;;;21.50;80.10;;;;;;5096598;28;20051;-71
2021/09/11 01:20:07;;;;;;;11.45;7.20;;;21.50;80.10;;;;;;5095985;28;20040;-71
2021/09/11 01:22:33;;;;;;;8.70;6.90;;;21.40;79.90;;;;;;5095439;28;20059;-71
2021/09/11 01:25:05;;;;;;;7.68;6.68;;;21.40;80.00;;;;;;5096141;28;20048;-72
2021/09/11 01:27:31;;;;;;;7.57;6.78;;;21.40;79.80;;;;;;5078487;28;20338;-71
2021/09/11 01:29:59;;;;;;;7.55;5.97;;;21.40;79.90;;;;;;5096407;28;20134;-70
2021/09/11 01:32:28;;;;;;;7.78;6.20;;;21.40;79.90;;;;;;5077830;28;20127;-71
2021/09/11 01:34:54;;;;;;;7.45;6.45;;;21.40;79.80;;;;;;5095811;28;20530;-71
2021/09/11 01:37:20;;;;;;;7.00;6.30;;;21.30;79.80;;;;;;5095686;28;20079;-71
2021/09/11 01:39:49;;;;;;;6.10;5.07;;;21.30;79.80;;;;;;5095397;28;20427;-71
2021/09/11 01:42:20;;;;;;;6.63;5.47;;;21.30;79.90;;;;;;5095773;28;20043;-71
2021/09/11 01:44:48;;;;;;;6.03;5.25;;;21.40;79.90;;;;;;5096023;28;20055;-72
2021/09/11 01:47:14;;;;;;;5.93;4.95;;;21.30;80.00;;;;;;5095309;28;20048;-71
2021/09/11 01:49:42;;;;;;;7.90;5.15;;;21.30;79.90;;;;;;5095617;28;20058;-71
2021/09/11 01:52:08;;;;;;;6.03;4.78;;;21.30;79.80;;;;;;5095500;28;20040;-72
2021/09/11 01:54:35;;;;;;;5.45;4.82;;;21.30;80.40;;;;;;5096344;28;20035;-72
2021/09/11 01:57:01;;;;;;;5.45;4.53;;;21.30;79.80;;;;;;5096407;28;20044;-72
2021/09/11 01:59:27;;;;;;;5.55;4.20;;;21.30;79.60;;;;;;5095253;28;20342;-71
2021/09/11 02:01:52;;;;;;;5.20;4.45;;;21.30;79.70;;;;;;5095033;28;20111;-72
2021/09/11 02:04:18;;;;;;;6.53;4.38;;;21.30;79.70;;;;;;5095426;28;20467;-72
2021/09/11 02:06:44;;;;;;;4.88;3.83;;;21.30;79.60;;;;;;5096092;28;20043;-71
2021/09/11 02:09:11;;;;;;;5.97;3.80;;;21.30;79.70;;;;;;5095695;28;20082;-72
2021/09/11 02:11:36;;;;;;;4.90;4.30;;;21.30;79.70;;;;;;5095845;28;20119;-71
2021/09/11 02:14:02;;;;;;;6.18;3.80;;;21.30;79.60;;;;;;5094978;28;20480;-71
2021/09/11 02:16:28;;;;;;;5.03;4.10;;;21.30;79.60;;;;;;5095341;28;20036;-71
2021/09/11 02:18:54;;;;;;;5.38;3.88;;;21.20;79.50;;;;;;5095245;28;20044;-71
2021/09/11 02:21:20;;;;;;;4.65;3.75;;;21.20;79.60;;;;;;5095256;28;20427;-71
2021/09/11 02:23:45;;;;;;;3.85;3.50;;;21.20;79.60;;;;;;5095116;28;20044;-71
2021/09/11 02:26:11;;;;;;;5.40;3.60;;;21.20;79.40;;;;;;5095026;28;20044;-71
2021/09/11 02:28:37;;;;;;;4.68;3.28;;;21.20;80.10;;;;;;5095415;28;20051;-71
2021/09/11 02:31:02;;;;;;;5.43;3.92;;;21.20;79.40;;;;;;5095028;28;20036;-72
2021/09/11 02:33:28;;;;;;;4.10;3.38;;;21.20;79.40;;;;;;5096352;28;20462;-71
2021/09/11 02:35:54;;;;;;;4.22;3.80;;;21.20;79.60;;;;;;5099757;28;20093;-72
2021/09/11 02:38:19;;;;;;;4.68;3.40;;;21.20;79.50;;;;;;5099486;28;20032;-71
2021/09/11 02:40:45;;;;;;;5.45;3.10;;;21.20;79.60;;;;;;5099978;28;20423;-71
2021/09/11 02:43:11;;;;;;;6.32;3.65;;;21.20;79.60;;;;;;5098230;28;20105;-71
2021/09/11 02:45:37;;;;;;;4.38;3.10;;;21.20;79.50;;;;;;5099499;28;20175;-71
2021/09/11 02:48:03;;;;;;;8.02;3.47;;;21.20;79.40;;;;;;5099002;28;20470;-72
2021/09/11 02:50:28;;;;;;;4.65;2.92;;;21.20;79.50;;;;;;5081494;28;20062;-71
2021/09/11 02:52:54;;;;;;;5.00;3.38;;;21.20;79.50;;;;;;5098965;28;20048;-71
2021/09/11 02:55:20;;;;;;;4.13;2.97;;;21.20;79.40;;;;;;5081350;28;20044;-71
2021/09/11 02:57:45;;;;;;;5.10;3.65;;;21.20;79.50;;;;;;5098434;28;20036;-71
2021/09/11 03:00:11;;;;;;;7.45;3.80;;;21.20;79.40;;;;;;5099188;28;20421;-71
2021/09/11 03:02:37;;;;;;;6.53;3.42;;;21.20;79.40;;;;;;5098293;28;20130;-71
2021/09/11 03:05:04;;;;;;;5.00;3.63;;;21.20;79.40;;;;;;5098752;28;20079;-71
2021/09/11 03:07:30;;;;;;;5.57;3.30;;;21.20;79.40;;;;;;5081833;28;20040;-71
2021/09/11 03:09:55;;;;;;;11.18;3.65;;;21.20;79.40;;;;;;5098971;28;20105;-71
2021/09/11 03:12:21;;;;;;;4.93;3.42;;;21.20;79.50;;;;;;5098040;28;20455;-70
2021/09/11 03:14:47;;;;;;;5.55;3.83;;;21.20;79.50;;;;;;5098359;28;20047;-71
2021/09/11 03:17:12;;;;;;;5.90;3.60;;;21.20;79.40;;;;;;5098700;28;20043;-72
2021/09/11 03:19:38;;;;;;;5.15;3.72;;;21.20;79.50;;;;;;5098219;28;20071;-71
2021/09/11 03:22:04;;;;;;;8.23;3.33;;;21.10;79.20;;;;;;5077059;28;20029;-71
2021/09/11 03:24:30;;;;;;;5.57;3.30;;;21.10;79.30;;;;;;5078365;28;20043;-71
2021/09/11 03:26:56;;;;;;;4.70;3.30;;;21.10;79.40;;;;;;5078050;28;20044;-71
2021/09/11 03:29:21;;;;;;;6.63;3.60;;;21.10;79.40;;;;;;5077910;28;20119;-71
2021/09/11 03:31:47;;;;;;;7.45;3.72;;;21.10;79.50;;;;;;5062550;28;20141;-71
2021/09/11 03:34:13;;;;;;;6.47;3.22;;;21.10;79.40;;;;;;5098163;28;20040;-71
2021/09/11 03:36:38;;;;;;;5.57;3.53;;;21.10;79.30;;;;;;5098406;28;20055;-71
2021/09/11 03:39:04;;;;;;;5.05;3.40;;;21.10;79.40;;;;;;5063960;28;20358;-71
2021/09/11 03:41:30;;;;;;;4.88;3.30;;;21.10;79.30;;;;;;5097879;28;20050;-72
2021/09/11 03:43:56;;;;;;;6.38;3.10;;;21.10;79.30;;;;;;5097079;28;20063;-71
2021/09/11 03:46:21;;;;;;;9.05;3.85;;;21.10;79.30;;;;;;5097958;28;20047;-71
2021/09/11 03:48:47;;;;;;;8.07;3.88;;;21.10;79.30;;;;;;5080166;28;20062;-71
2021/09/11 03:51:13;;;;;;;6.03;3.78;;;21.10;79.40;;;;;;5097654;28;20134;-71
2021/09/11 03:53:38;;;;;;;5.20;3.53;;;21.10;79.30;;;;;;5080201;28;20442;-71
2021/09/11 03:56:04;;;;;;;6.70;3.63;;;21.10;79.40;;;;;;5097915;28;20044;-71
2021/09/11 03:58:30;;;;;;;6.82;3.17;;;21.10;79.40;;;;;;5097726;28;20119;-71
2021/09/11 04:00:56;;;;;;;7.55;3.65;;;21.10;79.40;;;;;;5079722;28;20123;-71
2021/09/11 04:03:22;;;;;;;7.35;3.83;;;21.10;79.40;;;;;;5075829;28;20055;-71
2021/09/11 04:05:47;;;;;;;5.78;3.83;;;21.00;79.20;;;;;;5077504;28;20047;-71
2021/09/11 04:08:13;;;;;;;6.82;3.65;;;21.00;79.20;;;;;;5078092;28;20090;-72
2021/09/11 04:10:39;;;;;;;9.57;3.53;;;21.00;79.30;;;;;;5077613;28;20040;-71
2021/09/11 04:13:04;;;;;;;7.55;3.97;;;21.00;79.40;;;;;;5073808;28;20048;-71
2021/09/11 04:15:30;;;;;;;7.07;3.55;;;21.00;79.40;;;;;;5097616;28;20039;-71
2021/09/11 04:17:56;;;;;;;7.57;3.38;;;21.00;79.30;;;;;;5097163;28;20134;-71
2021/09/11 04:20:21;;;;;;;6.32;4.00;;;21.00;79.30;;;;;;5097673;28;20069;-71
2021/09/11 04:22:47;;;;;;;8.13;4.00;;;21.00;79.30;;;;;;5097176;28;20051;-71
2021/09/11 04:25:13;;;;;;;7.72;3.78;;;21.00;79.30;;;;;;5097423;28;20051;-72
2021/09/11 04:27:38;;;;;;;6.55;3.47;;;21.00;79.40;;;;;;5097058;28;20036;-71
2021/09/11 04:30:05;;;;;;;9.52;3.55;;;21.00;79.40;;;;;;5096879;28;20050;-71
2021/09/11 04:32:31;;;;;;;6.53;3.38;;;21.00;79.40;;;;;;5096636;28;20439;-71
2021/09/11 04:34:57;;;;;;;6.28;3.65;;;21.00;79.40;;;;;;5097138;28;20119;-72
2021/09/11 04:37:23;;;;;;;7.20;3.63;;;21.00;79.40;;;;;;5096767;28;20036;-71
2021/09/11 04:39:48;;;;;;;6.85;3.55;;;21.00;79.30;;;;;;5097176;28;20036;-72
2021/09/11 04:42:14;;;;;;;8.32;3.63;;;21.00;79.30;;;;;;5097206;28;20051;-72
2021/09/11 04:44:40;;;;;;;6.55;3.47;;;21.00;79.20;;;;;;5097311;28;20062;-71
2021/09/11 04:47:05;;;;;;;6.00;3.28;;;21.00;79.20;;;;;;5097638;28;20048;-72
2021/09/11 04:49:31;;;;;;;7.00;3.50;;;21.00;79.20;;;;;;5096931;28;20086;-71
2021/09/11 04:51:57;;;;;;;8.05;4.03;;;21.00;79.90;;;;;;5096499;28;20449;-71
2021/09/11 04:54:22;;;;;;;5.85;3.33;;;21.00;79.20;;;;;;5096879;28;20055;-70
2021/09/11 04:56:48;;;;;;;7.10;3.47;;;21.00;79.30;;;;;;5096199;28;20048;-72
2021/09/11 04:59:14;;;;;;;7.38;4.20;;;21.00;79.30;;;;;;5096748;28;20040;-71
2021/09/11 05:01:39;;;;;;;6.05;3.60;;;21.00;79.30;;;;;;5096194;28;20412;-71
2021/09/11 05:04:05;;;;;;;7.00;3.20;;;21.00;79.30;;;;;;5096147;28;20050;-72
2021/09/11 05:06:31;;;;;;;7.88;3.53;;;21.00;79.40;;;;;;5079001;28;20119;-71
2021/09/11 05:08:57;;;;;;;7.18;3.55;;;21.00;79.40;;;;;;5096652;28;20128;-71
2021/09/11 05:11:22;;;;;;;5.97;3.47;;;21.00;79.40;;;;;;5096370;28;20097;-71
2021/09/11 05:13:48;;;;;;;7.20;3.45;;;21.00;79.30;;;;;;5096303;28;20079;-71
2021/09/11 05:16:14;;;;;;;6.75;3.65;;;21.00;79.40;;;;;;5078726;28;20061;-71
2021/09/11 05:18:39;;;;;;;9.23;3.53;;;21.00;79.50;;;;;;5096239;28;20040;-71
2021/09/11 05:21:06;;;;;;;9.18;3.75;;;20.90;79.30;;;;;;5061863;28;20077;-71
2021/09/11 05:23:33;;;;;;;6.93;3.63;;;21.00;79.40;;;;;;5078558;28;20058;-71
2021/09/11 05:26:01;;;;;;;6.65;3.80;;;21.00;79.40;;;;;;5096773;28;20040;-71
2021/09/11 05:28:27;;;;;;;9.73;3.72;;;21.00;79.40;;;;;;5095971;28;20036;-70
2021/09/11 05:30:52;;;;;;;7.88;3.15;;;21.00;79.30;;;;;;5095699;28;20035;-71
2021/09/11 05:33:18;;;;;;;8.55;4.05;;;21.10;79.20;;;;;;5095171;28;20040;-70
2021/09/11 05:35:44;;;;;;;8.18;3.80;;;21.10;79.20;;;;;;5095038;28;20059;-73
2021/09/11 05:38:12;;;;;;;10.38;3.75;;;21.10;79.10;;;;;;5095939;28;20048;-79
2021/09/11 05:40:38;;;;;;;13.27;5.70;;;21.10;79.20;;;;;;5057591;28;20371;-76
2021/09/11 05:43:04;;;;;;;18.70;7.15;;;21.10;79.00;;;;;;5095385;28;20048;-80
2021/09/11 05:45:30;;;;;;;18.48;7.88;;;21.20;78.60;;;;;;5076845;28;20058;-81
2021/09/11 05:47:56;;;;;;;15.23;8.20;;;21.10;78.40;;;;;;5077407;28;20040;-81
2021/09/11 05:50:21;;;;;;;16.38;7.25;;;21.10;78.40;;;;;;5077361;28;20463;-76
2021/09/11 05:52:47;;;;;;;15.45;8.10;;;21.00;78.60;;;;;;5077313;28;20115;-83
2021/09/11 05:55:15;;;;;;;18.58;8.52;;;21.00;78.80;;;;;;5077137;28;20032;-75
2021/09/11 05:57:41;;;;;;;22.27;8.63;;;20.90;79.00;;;;;;5094789;28;20184;-77
2021/09/11 06:00:07;;;;;;;18.95;8.43;;;20.90;79.10;;;;;;5095388;28;20062;-80
2021/09/11 06:02:33;;;;;;;19.13;8.13;;;20.80;79.40;;;;;;5093577;28;20032;-80
2021/09/11 06:04:59;;;;;;;15.52;7.50;;;20.80;79.70;;;;;;5076676;28;20098;-79
2021/09/11 06:07:25;;;;;;;13.70;7.43;;;20.80;79.70;;;;;;5095242;28;20044;-79
2021/09/11 06:09:51;;;;;;;17.88;8.65;;;20.90;79.80;;;;;;5077435;28;20050;-78
2021/09/11 06:12:17;;;;;;;16.95;8.85;;;20.90;80.00;;;;;;5076725;28;20135;-77
2021/09/11 06:14:43;;;;;;;17.33;8.73;;;20.90;80.30;;;;;;5094824;28;20455;-81
2021/09/11 06:17:09;;;;;;;15.23;8.15;;;20.90;80.40;;;;;;5077311;28;20164;-77
2021/09/11 06:19:36;;;;;;;19.38;7.93;;;20.90;80.30;;;;;;5095211;28;20050;-80
2021/09/11 06:22:02;;;;;;;18.63;8.05;;;20.90;80.30;;;;;;5077887;28;20094;-78
2021/09/11 06:24:28;;;;;;;13.88;7.95;;;20.90;80.30;;;;;;5095038;28;20101;-75
2021/09/11 06:26:54;;;;;;;19.17;9.48;;;20.90;80.20;;;;;;5095117;28;20048;-76
2021/09/11 06:29:20;;;;;;;20.38;9.38;;;20.90;80.10;;;;;;5095083;28;20321;-76
2021/09/11 06:31:46;;;;;;;18.63;9.75;;;20.90;80.20;;;;;;5094479;28;20040;-77
2021/09/11 06:34:12;;;;;;;18.02;9.65;;;20.80;80.20;;;;;;5094821;28;20489;-77
2021/09/11 06:36:37;;;;;;;17.02;10.20;;;20.80;80.30;;;;;;5094896;28;20128;-78
2021/09/11 06:39:03;;;;;;;18.52;10.18;;;20.70;80.40;;;;;;5095486;28;20347;-77
2021/09/11 06:41:29;;;;;;;19.17;9.57;;;20.70;80.60;;;;;;5094365;28;20032;-70
2021/09/11 06:43:55;;;;;;;20.63;9.73;;;20.70;80.60;;;;;;5094168;28;20185;-70
2021/09/11 06:46:20;;;;;;;17.52;8.27;;;20.70;80.90;;;;;;5094882;28;20451;-70
2021/09/11 06:48:46;;;;;;;16.92;9.05;;;20.70;81.00;;;;;;5095009;28;20036;-70
2021/09/11 06:51:12;;;;;;;19.85;8.00;;;20.70;81.00;;;;;;5094541;28;20046;-71
2021/09/11 06:53:39;;;;;;;15.10;8.00;;;20.70;81.10;;;;;;5076908;28;20439;-70
2021/09/11 06:56:05;;;;;;;14.75;7.85;;;20.70;81.10;;;;;;5094193;28;20032;-70
2021/09/11 06:58:30;;;;;;;16.20;7.70;;;20.80;81.20;;;;;;5094480;28;20050;-71
2021/09/11 07:00:56;;;;;;;13.90;6.65;;;20.80;81.20;;;;;;5094945;28;20036;-70
2021/09/11 07:03:22;;;;;;;11.98;6.68;;;20.80;81.20;;;;;;5094940;28;20040;-70
2021/09/11 07:05:47;;;;;;;12.57;6.47;;;20.80;81.20;;;;;;5094015;28;20028;-70
2021/09/11 07:08:13;;;;;;;15.77;6.65;;;20.80;81.20;;;;;;5094947;28;20123;-70
2021/09/11 07:10:42;;;;;;;10.65;6.40;;;20.80;81.20;;;;;;5094457;28;20044;-70
2021/09/11 07:13:07;;;;;;;14.13;6.15;;;20.80;81.30;;;;;;5094647;28;20052;-69
2021/09/11 07:15:33;;;;;;;13.10;6.63;;;20.90;81.30;;;;;;5094600;28;20044;-70
2021/09/11 07:17:59;;;;;;;19.60;5.75;;;20.90;81.30;;;;;;5094925;28;20083;-70
2021/09/11 07:20:26;;;;;;;15.32;6.30;;;21.00;81.20;;;;;;5097278;28;20499;-71
2021/09/11 07:22:52;;;;;;;13.00;6.70;;;21.00;81.10;;;;;;5098688;28;20447;-71
2021/09/11 07:25:17;;;;;;;18.45;6.53;;;20.90;81.00;;;;;;5097753;28;20090;-71
2021/09/11 07:27:43;;;;;;;19.70;5.95;;;21.00;81.00;;;;;;5098743;28;20040;-71
2021/09/11 07:30:10;;;;;;;18.05;6.60;;;21.00;81.10;;;;;;5098324;28;20048;-73
2021/09/11 07:32:35;;;;;;;18.55;6.20;;;21.00;81.10;;;;;;5097886;28;20032;-73
2021/09/11 07:35:01;;;;;;;12.57;5.75;;;21.00;81.20;;;;;;5097924;28;20047;-83
2021/09/11 07:37:27;;;;;;;15.68;6.07;;;21.00;81.20;;;;;;5080523;28;20039;-82
2021/09/11 07:39:53;;;;;;;17.17;6.95;;;21.00;81.20;;;;;;5063401;28;20065;-85
2021/09/11 07:42:21;;;;;;;15.93;6.55;;;21.00;81.20;;;;;;5079526;28;20036;-80
2021/09/11 07:44:47;;;;;;;18.92;7.40;;;21.00;81.20;;;;;;5097675;28;20039;-75
2021/09/11 07:47:17;;;;;;;19.58;8.20;;;21.00;81.30;;;;;;5098017;28;20036;-82
2021/09/11 07:49:44;;;;;;;21.65;8.52;;;21.00;81.30;;;;;;5063379;28;20043;-73
2021/09/11 07:52:10;;;;;;;23.65;8.88;;;21.10;81.10;;;;;;5097707;28;20028;-76
2021/09/11 07:54:36;;;;;;;26.55;9.77;;;21.10;81.10;;;;;;5097252;28;20043;-74
2021/09/11 07:57:02;;;;;;;21.63;10.27;;;21.10;81.50;;;;;;5097251;28;20100;-75
2021/09/11 07:59:28;;;;;;;16.10;8.32;;;21.10;80.90;;;;;;5098001;28;20377;-70
2021/09/11 08:01:53;;;;;;;18.08;10.10;;;21.10;80.70;;;;;;5096772;28;20040;-71
2021/09/11 08:04:19;;;;;;;27.13;9.45;;;21.10;80.70;;;;;;5097423;28;20431;-70
2021/09/11 08:06:45;;;;;;;13.43;8.48;;;21.10;80.80;;;;;;5097254;28;20047;-71
2021/09/11 08:09:11;;;;;;;17.83;8.73;;;21.10;80.70;;;;;;5097397;28;20455;-72
2021/09/11 08:11:36;;;;;;;16.70;8.10;;;21.10;80.70;;;;;;5096999;28;20039;-70
2021/09/11 08:14:02;;;;;;;14.23;7.80;;;21.10;80.70;;;;;;5096910;28;20075;-71
2021/09/11 08:16:29;;;;;;;19.23;7.95;;;21.10;80.60;;;;;;5097167;28;20048;-71
2021/09/11 08:18:55;;;;;;;19.48;7.90;;;21.10;80.50;;;;;;5098057;28;20039;-71
2021/09/11 08:21:21;;;;;;;16.80;8.55;;;21.10;80.50;;;;;;5097190;28;20121;-71
2021/09/11 08:23:46;;;;;;;15.95;8.27;;;21.10;80.40;;;;;;5096685;28;20184;-71
2021/09/11 08:26:12;;;;;;;15.93;7.75;;;21.10;80.30;;;;;;5079327;28;20040;-71
2021/09/11 08:28:38;;;;;;;11.95;6.88;;;21.10;80.30;;;;;;5097263;28;20054;-71
2021/09/11 08:31:04;;;;;;;14.02;7.50;;;21.10;80.20;;;;;;5078404;28;20098;-71
2021/09/11 08:33:30;;;;;;;12.35;7.30;;;21.10;80.20;;;;;;5096744;28;20040;-71
2021/09/11 08:35:56;;;;;;;12.07;7.43;;;21.10;80.20;;;;;;5096504;28;20040;-71
2021/09/11 08:38:21;;;;;;;17.52;7.45;;;21.10;80.20;;;;;;5097133;28;20043;-71
2021/09/11 08:40:48;;;;;;;16.13;7.40;;;21.10;80.10;;;;;;5096192;28;20051;-70
2021/09/11 08:43:18;;;;;;;12.60;6.97;;;21.10;80.10;;;;;;5096114;28;20044;-71
2021/09/11 08:45:44;;;;;;;13.02;7.57;;;21.10;80.10;;;;;;5096771;28;20119;-71
2021/09/11 08:48:10;;;;;;;12.82;7.00;;;21.10;80.00;;;;;;5097009;28;20048;-71
2021/09/11 08:50:36;;;;;;;14.38;7.03;;;21.10;80.00;;;;;;5096811;28;20036;-71
2021/09/11 08:53:02;;;;;;;11.52;6.82;;;21.10;80.00;;;;;;5096250;28;20048;-71
2021/09/11 08:55:29;;;;;;;13.80;7.70;;;21.20;80.00;;;;;;5096215;28;20048;-71
2021/09/11 08:58:07;;;;;;;13.77;7.72;;;21.10;79.90;;;;;;5096559;28;20056;-71
2021/09/11 09:00:45;;;;;;;16.20;7.72;;;21.10;79.90;;;;;;5096190;28;20123;-71
2021/09/11 09:03:36;;;;;;;15.45;7.68;;;21.20;80.00;;;;;;5096540;28;20040;-71
2021/09/11 09:06:12;;;;;;;13.98;7.47;;;21.20;80.00;;;;;;5092672;28;20073;-71
2021/09/11 09:08:37;;;;;;;9.02;7.55;;;21.10;80.00;;;;;;5096088;28;20044;-71
2021/09/11 09:11:21;;;;;;;12.45;7.50;;;21.10;79.90;;;;;;5096662;28;20044;-70
2021/09/11 09:14:01;;;;;;;15.02;7.72;;;21.10;79.90;;;;;;5095298;28;20527;-71
2021/09/11 09:16:36;;;;;;;10.95;7.53;;;21.10;80.00;;;;;;5096327;28;20055;-70
2021/09/11 09:19:24;;;;;;;11.68;7.60;;;21.10;80.00;;;;;;5096075;28;20044;-70
2021/09/11 09:21:55;;;;;;;11.75;7.70;;;21.10;79.90;;;;;;5096214;28;20070;-71
2021/09/11 09:24:36;;;;;;;14.65;8.10;;;21.10;80.00;;;;;;5095751;28;20130;-71
2021/09/11 09:27:07;;;;;;;15.70;7.63;;;21.10;80.00;;;;;;5095780;28;20044;-71
2021/09/11 09:29:37;;;;;;;13.90;7.22;;;21.20;80.00;;;;;;5095527;28;20358;-72
2021/09/11 09:32:04;;;;;;;11.32;7.22;;;21.20;80.00;;;;;;5091859;28;20040;-71
2021/09/11 09:34:36;;;;;;;12.20;7.40;;;21.10;80.00;;;;;;5095114;28;20463;-71
2021/09/11 09:37:07;;;;;;;11.25;7.80;;;21.10;80.00;;;;;;5095554;28;20063;-71
2021/09/11 09:39:44;;;;;;;12.07;7.90;;;21.10;79.90;;;;;;5094991;28;20043;-70
2021/09/11 09:42:11;;;;;;;10.85;6.68;;;21.20;79.90;;;;;;5095245;28;20035;-70
2021/09/11 09:44:51;;;;;;;9.70;6.78;;;21.20;80.00;;;;;;5095799;28;20446;-70
2021/09/11 09:47:25;;;;;;;9.70;6.78;;;21.20;80.00;;;;;;5095205;28;20435;-71
2021/09/11 09:50:08;;;;;;;10.75;6.57;;;21.20;80.00;;;;;;5095789;28;20071;-71
2021/09/11 09:52:36;;;;;;;7.85;6.38;;;21.20;79.90;;;;;;5095177;28;20047;-71
2021/09/11 09:55:02;;;;;;;11.90;6.85;;;21.20;80.00;;;;;;5095798;28;20047;-71
2021/09/11 09:57:28;;;;;;;11.10;7.68;;;21.20;80.10;;;;;;5095526;28;20040;-71
2021/09/11 09:59:54;;;;;;;11.02;7.20;;;21.20;80.10;;;;;;5095303;28;20047;-71
2021/09/11 10:02:20;;;;;;;11.73;7.35;;;21.20;80.10;;;;;;5094506;28;20123;-70
2021/09/11 10:04:50;;;;;;;10.32;6.40;;;21.20;80.10;;;;;;5077142;28;20376;-71
2021/09/11 10:07:18;;;;;;;8.50;6.90;;;21.20;80.10;;;;;;5095229;28;20043;-71
2021/09/11 10:09:48;;;;;;;9.68;6.40;;;21.10;80.00;;;;;;5095459;28;20035;-70
2021/09/11 10:12:29;;;;;;;10.55;7.07;;;21.20;80.10;;;;;;5094871;28;20036;-70
2021/09/11 10:15:35;;;;;;;9.45;6.78;;;21.20;80.00;;;;;;5095568;28;20392;-70
2021/09/11 10:18:04;;;;;;;12.88;6.53;;;21.20;80.00;;;;;;5092316;28;20052;-71
2021/09/11 10:21:08;;;;;;;10.73;6.82;;;21.20;80.10;;;;;;5095002;28;20082;-71
2021/09/11 10:23:34;;;;;;;9.75;6.53;;;21.20;79.90;;;;;;5074828;28;20044;-71
2021/09/11 10:25:59;;;;;;;10.75;6.40;;;21.20;80.10;;;;;;5091467;28;20096;-74
2021/09/11 10:28:25;;;;;;;12.13;7.63;;;21.20;80.60;;;;;;5094659;28;20043;-75
2021/09/11 10:31:08;;;;;;;12.60;9.85;;;21.20;79.90;;;;;;5094595;28;20073;-73
2021/09/11 10:33:46;;;;;;;17.30;10.10;;;21.20;79.90;;;;;;5095056;28;20188;-79
2021/09/11 10:36:23;;;;;;;13.35;9.57;;;21.10;80.00;;;;;;5094283;28;20066;-76
2021/09/11 10:38:52;;;;;;;14.90;10.23;;;21.10;80.30;;;;;;5094790;28;20051;-77
2021/09/11 10:41:19;;;;;;;11.98;9.45;;;21.10;80.50;;;;;;5077306;28;20327;-72
2021/09/11 10:44:08;;;;;;;15.80;12.38;;;21.10;80.90;;;;;;5094253;28;20451;-78
2021/09/11 10:46:54;;;;;;;14.93;9.30;;;21.20;81.30;;;;;;5077499;28;20044;-77
2021/09/11 10:49:31;;;;;;;13.90;8.32;;;21.20;81.20;;;;;;5095063;28;20439;-77
2021/09/11 10:52:07;;;;;;;13.18;8.13;;;21.20;81.20;;;;;;5095000;28;20040;-75
2021/09/11 10:54:42;;;;;;;13.13;8.35;;;21.20;81.20;;;;;;5096389;28;20032;-75
2021/09/11 10:57:13;;;;;;;20.20;8.65;;;21.20;81.20;;;;;;5099277;28;20392;-75
2021/09/11 10:59:46;;;;;;;14.18;8.52;;;21.20;81.10;;;;;;5099124;28;20044;-74
2021/09/11 11:02:21;;;;;;;17.20;8.60;;;21.20;81.20;;;;;;5081038;28;20047;-75
2021/09/11 11:04:47;;;;;;;13.38;7.97;;;21.20;81.10;;;;;;5064236;28;20071;-76
2021/09/11 11:07:34;;;;;;;11.55;7.97;;;21.20;81.00;;;;;;5098996;28;20109;-76
2021/09/11 11:10:07;;;;;;;14.02;8.20;;;21.20;80.80;;;;;;5097404;28;20056;-76
2021/09/11 11:12:44;;;;;;;13.83;8.83;;;21.20;80.70;;;;;;5098820;28;20050;-76
2021/09/11 11:15:28;;;;;;;11.30;7.78;;;21.20;80.60;;;;;;5097309;28;20286;-76
2021/09/11 11:17:54;;;;;;;13.60;7.40;;;21.20;80.50;;;;;;5078599;28;20075;-77
2021/09/11 11:20:27;;;;;;;13.80;7.35;;;21.20;80.60;;;;;;5078327;28;20048;-77
2021/09/11 11:22:57;;;;;;;16.47;7.93;;;21.30;80.60;;;;;;5078127;28;20052;-77
2021/09/11 11:25:35;;;;;;;12.00;7.15;;;21.30;80.60;;;;;;5078482;28;20033;-77
2021/09/11 11:28:02;;;;;;;14.70;7.80;;;21.30;80.50;;;;;;5071522;28;20443;-76
2021/09/11 11:30:28;;;;;;;11.48;6.97;;;21.30;80.50;;;;;;5080220;28;20048;-77
2021/09/11 11:32:53;;;;;;;9.88;6.75;;;21.40;80.60;;;;;;5098190;28;20055;-71
2021/09/11 11:35:20;;;;;;;15.65;7.20;;;21.40;81.10;;;;;;5097618;28;20035;-72
2021/09/11 11:37:46;;;;;;;12.23;6.18;;;21.40;80.50;;;;;;5098109;28;20047;-71
2021/09/11 11:40:13;;;;;;;11.13;6.03;;;21.40;80.60;;;;;;5098719;28;20036;-71
2021/09/11 11:42:41;;;;;;;10.25;6.47;;;21.40;80.50;;;;;;5072675;28;20044;-71
2021/09/11 11:45:09;;;;;;;14.38;6.75;;;21.40;80.50;;;;;;5077534;28;20109;-71
2021/09/11 11:48:00;;;;;;;12.80;6.32;;;21.40;80.60;;;;;;5085657;28;20039;-71
2021/09/11 11:50:34;;;;;;;10.82;7.07;;;21.50;80.60;;;;;;5097417;28;20156;-71
2021/09/11 11:53:10;;;;;;;9.77;7.13;;;21.50;80.60;;;;;;5098067;28;20040;-71
2021/09/11 11:55:41;;;;;;;11.80;7.85;;;21.40;80.50;;;;;;5098025;28;20086;-71
2021/09/11 11:58:10;;;;;;;10.23;7.15;;;21.50;80.50;;;;;;5097589;28;20481;-71
2021/09/11 12:00:46;;;;;;;10.68;6.97;;;21.50;80.50;;;;;;5097638;28;20075;-71
2021/09/11 12:03:33;;;;;;;12.73;7.85;;;21.50;80.50;;;;;;5097470;28;20076;-71
2021/09/11 12:06:01;;;;;;;11.35;7.97;;;21.50;80.40;;;;;;5097568;28;20122;-71
2021/09/11 12:08:27;;;;;;;9.13;7.55;;;21.50;80.50;;;;;;5097843;28;20105;-71
2021/09/11 12:10:54;;;;;;;11.38;8.10;;;21.50;80.50;;;;;;5097347;28;20416;-71
2021/09/11 12:13:21;;;;;;;15.43;8.95;;;21.50;80.50;;;;;;5097872;28;20123;-71
2021/09/11 12:15:48;;;;;;;12.65;9.05;;;21.50;80.50;;;;;;5097452;28;20123;-71
2021/09/11 12:18:16;;;;;;;13.93;9.13;;;21.50;80.50;;;;;;5097655;28;20123;-71
2021/09/11 12:20:49;;;;;;;12.30;8.25;;;21.50;80.50;;;;;;5097442;28;20443;-71
2021/09/11 12:23:21;;;;;;;20.50;10.50;;;21.50;80.40;;;;;;5097155;28;20096;-71
2021/09/11 12:25:50;;;;;;;15.80;10.43;;;21.60;80.50;;;;;;5097278;28;20036;-70
2021/09/11 12:28:49;;;;;;;15.35;10.63;;;21.60;80.40;;;;;;5097673;28;20192;-71
2021/09/11 12:31:19;;;;;;;14.43;9.38;;;21.60;80.30;;;;;;5092199;28;20055;-71
2021/09/11 12:33:51;;;;;;;16.50;9.90;;;21.60;80.30;;;;;;5097160;28;20051;-71
2021/09/11 12:36:28;;;;;;;16.35;10.30;;;21.60;80.40;;;;;;5097271;28;20058;-71
2021/09/11 12:38:56;;;;;;;12.77;10.15;;;21.60;80.40;;;;;;5097216;28;20123;-71
2021/09/11 12:41:22;;;;;;;13.95;10.18;;;21.60;80.50;;;;;;5097098;28;20101;-70
2021/09/11 12:43:49;;;;;;;17.02;10.45;;;21.60;80.50;;;;;;5096873;28;20129;-71
2021/09/11 12:46:34;;;;;;;14.60;10.85;;;21.60;80.40;;;;;;5096896;28;20052;-71